首页
METAR-TAF:

METAR-TAF

机场 :

加来, 法国

纬度: 50-57-39N, 经度: 001-57-05E, 海拔: 4米

当前天气观测

该预报发布于32分钟前的08:30 UTC
风速2节,风向多变
温度 7°C
湿度 61%
气压 1025 hPa
能见度10公里或以上
多云层高于3000英尺

METAR: LFAC 010830Z AUTO VRB02KT 9999 BKN030 07/00 Q1025

时间: 11:02 (09:02 UTC)


TAF: 丢失

超过4000个机场的气象观测和天气预报(METAR&TAF报告)。

可查询的气象台以黄色和红色小点在地图上表示。

将鼠标移到小点上方,可查看气象台名称。

然后点击查看天气观测和预报。

如需切换地图:点击带黑十字的绿色按钮放大地图;点击带横线的绿色按钮缩小地图;或者点击绿色箭头查看邻近地区的地图。


METAR-TAF: